NOZ173 ENZV-ENBR
Flight info
| Callsign | NOZ173 |
|---|---|
| Flight time | 0h 23m |
| Altitude | 16000 |
| Route | ALUVA |
| Aircraft | B738/M-SDE2E3FGHIRWXY/LB1 |
Departure
| Time | 2026-04-10 12:37 |
|---|---|
| Airport | Stavanger Airport, Sola (ENZV) |
Arrival
| Time | 2026-04-10 13:00 |
|---|---|
| Airport | Bergen Airport, Flesland (ENBR) |
| Time | Latitude | Longitude | Altitude | Speed | Heading |
|---|---|---|---|---|---|
| 2026-04-10 12:18 | 58.88127 | 5.63026 | 24 ft | 0 kts | 315° |
| 2026-04-10 12:28 | 58.88124 | 5.63032 | 24 ft | 3 kts | 315° |
| 2026-04-10 12:29 | 58.88111 | 5.63058 | 29 ft | 3 kts | 315° |
| 2026-04-10 12:29 | 58.88101 | 5.63075 | 27 ft | 0 kts | 315° |
| 2026-04-10 12:31 | 58.88102 | 5.63075 | 27 ft | 0 kts | 315° |
| 2026-04-10 12:32 | 58.88102 | 5.63068 | 29 ft | 1 kts | 291° |
| 2026-04-10 12:33 | 58.88093 | 5.63044 | 29 ft | 3 kts | 216° |
| 2026-04-10 12:33 | 58.88069 | 5.63011 | 25 ft | 8 kts | 218° |
| 2026-04-10 12:33 | 58.88039 | 5.62908 | 26 ft | 10 kts | 251° |
| 2026-04-10 12:33 | 58.88031 | 5.62774 | 24 ft | 10 kts | 273° |
| 2026-04-10 12:34 | 58.88026 | 5.62630 | 27 ft | 12 kts | 244° |
| 2026-04-10 12:34 | 58.87957 | 5.62524 | 24 ft | 14 kts | 200° |
| 2026-04-10 12:34 | 58.87888 | 5.62393 | 25 ft | 16 kts | 269° |
| 2026-04-10 12:34 | 58.87924 | 5.62164 | 24 ft | 20 kts | 287° |
| 2026-04-10 12:35 | 58.87969 | 5.61855 | 22 ft | 25 kts | 285° |
| 2026-04-10 12:35 | 58.88015 | 5.61546 | 21 ft | 23 kts | 287° |
| 2026-04-10 12:35 | 58.88061 | 5.61253 | 22 ft | 22 kts | 287° |
| 2026-04-10 12:35 | 58.88104 | 5.60969 | 19 ft | 22 kts | 286° |
| 2026-04-10 12:36 | 58.88149 | 5.60773 | 17 ft | 6 kts | 301° |
| 2026-04-10 12:36 | 58.88140 | 5.60766 | 17 ft | 3 kts | 147° |
| 2026-04-10 12:36 | 58.88132 | 5.60805 | 16 ft | 2 kts | 104° |
| 2026-04-10 12:36 | 58.88078 | 5.61148 | 19 ft | 59 kts | 106° |
| 2026-04-10 12:37 | 58.87901 | 5.62318 | 29 ft | 120 kts | 106° |
| 2026-04-10 12:37 | 58.87629 | 5.64171 | 112 ft | 161 kts | 107° |
| 2026-04-10 12:37 | 58.87414 | 5.66317 | 808 ft | 165 kts | 90° |
| 2026-04-10 12:37 | 58.87794 | 5.68530 | 1287 ft | 189 kts | 55° |
| 2026-04-10 12:38 | 58.88885 | 5.70059 | 1798 ft | 204 kts | 19° |
| 2026-04-10 12:38 | 58.90262 | 5.70378 | 2664 ft | 192 kts | 360° |
| 2026-04-10 12:38 | 58.91575 | 5.69864 | 3440 ft | 199 kts | 341° |
| 2026-04-10 12:38 | 58.92900 | 5.68659 | 3857 ft | 220 kts | 335° |
| 2026-04-10 12:39 | 58.94285 | 5.67158 | 4233 ft | 236 kts | 332° |
| 2026-04-10 12:39 | 58.95768 | 5.65462 | 4514 ft | 259 kts | 331° |
| 2026-04-10 12:39 | 58.97390 | 5.63600 | 4899 ft | 279 kts | 331° |
| 2026-04-10 12:39 | 58.99080 | 5.61691 | 5727 ft | 282 kts | 331° |
| 2026-04-10 12:40 | 59.00775 | 5.59809 | 6673 ft | 280 kts | 331° |
| 2026-04-10 12:40 | 59.02463 | 5.57961 | 7551 ft | 278 kts | 331° |
| 2026-04-10 12:40 | 59.04144 | 5.56141 | 8448 ft | 275 kts | 331° |
| 2026-04-10 12:40 | 59.05809 | 5.54353 | 9353 ft | 272 kts | 331° |
| 2026-04-10 12:41 | 59.07464 | 5.52586 | 10184 ft | 272 kts | 330° |
| 2026-04-10 12:41 | 59.09172 | 5.50765 | 10518 ft | 290 kts | 331° |
| 2026-04-10 12:41 | 59.11009 | 5.48810 | 10691 ft | 312 kts | 331° |
| 2026-04-10 12:41 | 59.12975 | 5.46718 | 10848 ft | 333 kts | 331° |
| 2026-04-10 12:42 | 59.15063 | 5.44498 | 11007 ft | 351 kts | 331° |
| 2026-04-10 12:42 | 59.17262 | 5.42159 | 11162 ft | 368 kts | 331° |
| 2026-04-10 12:42 | 59.19541 | 5.39731 | 11523 ft | 378 kts | 331° |
| 2026-04-10 12:42 | 59.21869 | 5.37250 | 11948 ft | 386 kts | 331° |
| 2026-04-10 12:43 | 59.24260 | 5.34698 | 12252 ft | 396 kts | 331° |
| 2026-04-10 12:43 | 59.26679 | 5.32112 | 12792 ft | 399 kts | 331° |
| 2026-04-10 12:43 | 59.29128 | 5.29489 | 13322 ft | 403 kts | 331° |
| 2026-04-10 12:43 | 59.31601 | 5.26836 | 13795 ft | 408 kts | 331° |
| 2026-04-10 12:44 | 59.34108 | 5.24142 | 14213 ft | 414 kts | 331° |
| 2026-04-10 12:44 | 59.36651 | 5.21405 | 14705 ft | 420 kts | 331° |
| 2026-04-10 12:44 | 59.39221 | 5.18633 | 15209 ft | 425 kts | 331° |
| 2026-04-10 12:44 | 59.41815 | 5.15832 | 15941 ft | 421 kts | 331° |
| 2026-04-10 12:45 | 59.44375 | 5.13061 | 15961 ft | 430 kts | 331° |
| 2026-04-10 12:45 | 59.46980 | 5.10238 | 15971 ft | 425 kts | 331° |
| 2026-04-10 12:45 | 59.49558 | 5.07437 | 15969 ft | 422 kts | 331° |
| 2026-04-10 12:45 | 59.52139 | 5.04629 | 15970 ft | 429 kts | 331° |
| 2026-04-10 12:46 | 59.54777 | 5.01754 | 15986 ft | 436 kts | 331° |
| 2026-04-10 12:46 | 59.57417 | 4.98873 | 15976 ft | 433 kts | 331° |
| 2026-04-10 12:46 | 59.60050 | 4.95993 | 15969 ft | 432 kts | 331° |
| 2026-04-10 12:46 | 59.62730 | 4.93350 | 15970 ft | 431 kts | 341° |
| 2026-04-10 12:47 | 59.65662 | 4.92344 | 16009 ft | 428 kts | 358° |
| 2026-04-10 12:47 | 59.68638 | 4.92055 | 15992 ft | 429 kts | 358° |
| 2026-04-10 12:47 | 59.71618 | 4.91641 | 15991 ft | 430 kts | 356° |
| 2026-04-10 12:47 | 59.74606 | 4.91153 | 15987 ft | 431 kts | 356° |
| 2026-04-10 12:48 | 59.77597 | 4.90646 | 15976 ft | 431 kts | 356° |
| 2026-04-10 12:48 | 59.80582 | 4.90000 | 15973 ft | 432 kts | 353° |
| 2026-04-10 12:48 | 59.83570 | 4.89159 | 15986 ft | 435 kts | 352° |
| 2026-04-10 12:48 | 59.86568 | 4.88249 | 15983 ft | 437 kts | 352° |
| 2026-04-10 12:49 | 59.89586 | 4.87484 | 15975 ft | 438 kts | 358° |
| 2026-04-10 12:49 | 59.92591 | 4.87777 | 15877 ft | 426 kts | 9° |
| 2026-04-10 12:49 | 59.95516 | 4.88550 | 15335 ft | 422 kts | 9° |
| 2026-04-10 12:49 | 59.98403 | 4.89326 | 14841 ft | 417 kts | 9° |
| 2026-04-10 12:50 | 60.01257 | 4.90077 | 14345 ft | 410 kts | 8° |
| 2026-04-10 12:50 | 60.04055 | 4.90793 | 13845 ft | 398 kts | 8° |
| 2026-04-10 12:50 | 60.06749 | 4.91465 | 13280 ft | 383 kts | 7° |
| 2026-04-10 12:50 | 60.09346 | 4.92105 | 12718 ft | 369 kts | 7° |
| 2026-04-10 12:51 | 60.11858 | 4.92720 | 12170 ft | 358 kts | 7° |
| 2026-04-10 12:51 | 60.14298 | 4.93317 | 11639 ft | 349 kts | 7° |
| 2026-04-10 12:51 | 60.16676 | 4.93899 | 11115 ft | 340 kts | 7° |
| 2026-04-10 12:51 | 60.18997 | 4.94469 | 10608 ft | 332 kts | 7° |
| 2026-04-10 12:52 | 60.21270 | 4.95027 | 10097 ft | 326 kts | 7° |
| 2026-04-10 12:52 | 60.23504 | 4.95577 | 9571 ft | 320 kts | 6° |
| 2026-04-10 12:52 | 60.25699 | 4.96117 | 9027 ft | 315 kts | 7° |
| 2026-04-10 12:52 | 60.27862 | 4.96650 | 8497 ft | 311 kts | 7° |
| 2026-04-10 12:53 | 60.29999 | 4.97177 | 7957 ft | 308 kts | 7° |
| 2026-04-10 12:53 | 60.31403 | 4.97524 | 7610 ft | 306 kts | 7° |
| 2026-04-10 12:53 | 60.33506 | 4.98044 | 7090 ft | 303 kts | 7° |
| 2026-04-10 12:53 | 60.35590 | 4.98561 | 6593 ft | 301 kts | 7° |
| 2026-04-10 12:54 | 60.38337 | 4.99242 | 5890 ft | 300 kts | 7° |
| 2026-04-10 12:54 | 60.40404 | 4.99755 | 5348 ft | 299 kts | 8° |
| 2026-04-10 12:54 | 60.41794 | 5.00101 | 4998 ft | 298 kts | 8° |
| 2026-04-10 12:54 | 60.43848 | 5.00618 | 4470 ft | 297 kts | 11° |
| 2026-04-10 12:55 | 60.45757 | 5.01989 | 3907 ft | 289 kts | 39° |
| 2026-04-10 12:55 | 60.47089 | 5.04878 | 3394 ft | 276 kts | 65° |
| 2026-04-10 12:55 | 60.47713 | 5.08420 | 3063 ft | 259 kts | 84° |
| 2026-04-10 12:55 | 60.47610 | 5.11860 | 2986 ft | 236 kts | 116° |
| 2026-04-10 12:56 | 60.46603 | 5.14202 | 2986 ft | 215 kts | 150° |
| 2026-04-10 12:56 | 60.45316 | 5.15485 | 2998 ft | 197 kts | 153° |
| 2026-04-10 12:56 | 60.44089 | 5.16514 | 2966 ft | 187 kts | 163° |
| 2026-04-10 12:56 | 60.42860 | 5.17175 | 2750 ft | 179 kts | 166° |
| 2026-04-10 12:57 | 60.41686 | 5.17651 | 2522 ft | 171 kts | 168° |
| 2026-04-10 12:57 | 60.40518 | 5.18055 | 2289 ft | 165 kts | 168° |
| 2026-04-10 12:57 | 60.39403 | 5.18433 | 2065 ft | 164 kts | 169° |
| 2026-04-10 12:57 | 60.38281 | 5.18806 | 1817 ft | 156 kts | 169° |
| 2026-04-10 12:58 | 60.37276 | 5.19143 | 1670 ft | 142 kts | 168° |
| 2026-04-10 12:58 | 60.36329 | 5.19464 | 1457 ft | 135 kts | 169° |
| 2026-04-10 12:58 | 60.35403 | 5.19750 | 1258 ft | 140 kts | 169° |
| 2026-04-10 12:58 | 60.34421 | 5.20097 | 993 ft | 143 kts | 167° |
| 2026-04-10 12:59 | 60.33431 | 5.20409 | 742 ft | 145 kts | 170° |
| 2026-04-10 12:59 | 60.32450 | 5.20740 | 587 ft | 141 kts | 167° |
| 2026-04-10 12:59 | 60.31485 | 5.21118 | 420 ft | 141 kts | 169° |
| 2026-04-10 12:59 | 60.30513 | 5.21438 | 247 ft | 141 kts | 170° |
| 2026-04-10 13:00 | 60.29571 | 5.21747 | 173 ft | 128 kts | 170° |
| 2026-04-10 13:00 | 60.28867 | 5.21984 | 173 ft | 61 kts | 168° |
| 2026-04-10 13:00 | 60.28678 | 5.22049 | 174 ft | 8 kts | 147° |
| 2026-04-10 13:00 | 60.28665 | 5.22162 | 174 ft | 9 kts | 84° |
| 2026-04-10 13:01 | 60.28679 | 5.22297 | 173 ft | 10 kts | 74° |
| 2026-04-10 13:01 | 60.28697 | 5.22428 | 173 ft | 10 kts | 75° |
| 2026-04-10 13:01 | 60.28710 | 5.22558 | 173 ft | 9 kts | 81° |
| 2026-04-10 13:01 | 60.28720 | 5.22686 | 163 ft | 9 kts | 80° |
| 2026-04-10 13:02 | 60.28730 | 5.22810 | 173 ft | 9 kts | 82° |
| 2026-04-10 13:02 | 60.28733 | 5.22863 | 173 ft | 0 kts | 82° |
| 2026-04-10 13:02 | 60.28735 | 5.22889 | 173 ft | 0 kts | 81° |